Terminal Aerodrome Forecast
Issued by NWS Buffalo, NY

Home | Current Version | Previous Version | Text Only | Print | Product List | Glossary On
Versions: 1 2 3 4 5 6 7 8 9 10 11 12 13 14 15 16 17 18 19 20 21 22 23 24 25
000
FTUS41 KBUF 292338
TAFART
TAF
KART 292338Z 3000/3024 19005KT P6SM BKN250
     FM300300 19009KT P6SM BKN070
     FM301200 20012G18KT P6SM BKN100
     FM301600 22014G20KT P6SM BKN070
     FM301900 22013G19KT P6SM VCSH BKN060
     FM302100 22012KT 6SM -SHRA OVC050=

USA.gov is the U.S. government's official web portal to all federal, state and local government web resources and services.